sensor_id;sensor_type;location;lat;lon;timestamp;P1;durP1;ratioP1;P2;durP2;ratioP2
2177;SDS011;1095;50.992;6.798;2023-02-28T00:01:49;9.57;;;5.03;;
2177;SDS011;1095;50.992;6.798;2023-02-28T00:04:29;6.93;;;4.97;;
2177;SDS011;1095;50.992;6.798;2023-02-28T00:06:58;10.40;;;5.15;;
2177;SDS011;1095;50.992;6.798;2023-02-28T00:09:25;7.88;;;4.97;;
2177;SDS011;1095;50.992;6.798;2023-02-28T00:11:51;8.10;;;5.15;;
2177;SDS011;1095;50.992;6.798;2023-02-28T00:14:18;8.13;;;5.13;;
2177;SDS011;1095;50.992;6.798;2023-02-28T00:16:45;7.32;;;5.10;;
2177;SDS011;1095;50.992;6.798;2023-02-28T00:19:11;10.32;;;6.13;;
2177;SDS011;1095;50.992;6.798;2023-02-28T00:21:40;8.23;;;5.10;;
2177;SDS011;1095;50.992;6.798;2023-02-28T00:24:08;9.70;;;5.18;;
2177;SDS011;1095;50.992;6.798;2023-02-28T00:26:35;10.20;;;5.30;;
2177;SDS011;1095;50.992;6.798;2023-02-28T00:29:01;9.48;;;5.25;;
2177;SDS011;1095;50.992;6.798;2023-02-28T00:31:28;7.63;;;5.07;;
2177;SDS011;1095;50.992;6.798;2023-02-28T00:33:55;16.00;;;5.65;;
2177;SDS011;1095;50.992;6.798;2023-02-28T00:36:21;11.60;;;5.30;;
2177;SDS011;1095;50.992;6.798;2023-02-28T00:38:50;8.30;;;4.97;;
2177;SDS011;1095;50.992;6.798;2023-02-28T00:41:16;8.30;;;5.60;;
2177;SDS011;1095;50.992;6.798;2023-02-28T00:43:43;9.80;;;5.20;;
2177;SDS011;1095;50.992;6.798;2023-02-28T00:46:10;9.23;;;5.18;;
2177;SDS011;1095;50.992;6.798;2023-02-28T00:48:36;7.43;;;4.97;;
2177;SDS011;1095;50.992;6.798;2023-02-28T00:51:03;9.27;;;5.47;;
2177;SDS011;1095;50.992;6.798;2023-02-28T00:53:30;8.52;;;5.72;;
2177;SDS011;1095;50.992;6.798;2023-02-28T00:56:02;9.23;;;5.22;;
2177;SDS011;1095;50.992;6.798;2023-02-28T00:58:29;8.60;;;5.38;;
2177;SDS011;1095;50.992;6.798;2023-02-28T01:00:55;7.22;;;4.93;;
2177;SDS011;1095;50.992;6.798;2023-02-28T01:03:22;8.20;;;5.60;;
2177;SDS011;1095;50.992;6.798;2023-02-28T01:05:49;10.55;;;5.57;;
2177;SDS011;1095;50.992;6.798;2023-02-28T01:08:18;6.53;;;5.03;;
2177;SDS011;1095;50.992;6.798;2023-02-28T01:10:44;7.93;;;4.88;;
2177;SDS011;1095;50.992;6.798;2023-02-28T01:13:12;8.93;;;5.50;;
2177;SDS011;1095;50.992;6.798;2023-02-28T01:15:40;8.25;;;5.03;;
2177;SDS011;1095;50.992;6.798;2023-02-28T01:18:10;8.02;;;5.32;;
2177;SDS011;1095;50.992;6.798;2023-02-28T01:20:36;11.38;;;5.07;;
2177;SDS011;1095;50.992;6.798;2023-02-28T01:23:03;9.57;;;5.40;;
2177;SDS011;1095;50.992;6.798;2023-02-28T01:25:30;8.15;;;4.93;;
2177;SDS011;1095;50.992;6.798;2023-02-28T01:27:56;7.68;;;5.10;;
2177;SDS011;1095;50.992;6.798;2023-02-28T01:30:24;7.32;;;5.18;;
2177;SDS011;1095;50.992;6.798;2023-02-28T01:32:51;8.55;;;5.13;;
2177;SDS011;1095;50.992;6.798;2023-02-28T01:35:18;11.10;;;5.13;;
2177;SDS011;1095;50.992;6.798;2023-02-28T01:37:51;7.30;;;5.10;;
2177;SDS011;1095;50.992;6.798;2023-02-28T01:40:17;9.77;;;4.78;;
2177;SDS011;1095;50.992;6.798;2023-02-28T01:42:44;7.55;;;4.82;;
2177;SDS011;1095;50.992;6.798;2023-02-28T01:45:19;10.07;;;5.32;;
2177;SDS011;1095;50.992;6.798;2023-02-28T01:47:52;9.68;;;4.85;;
2177;SDS011;1095;50.992;6.798;2023-02-28T01:50:22;7.57;;;5.10;;
2177;SDS011;1095;50.992;6.798;2023-02-28T01:52:52;11.95;;;5.03;;
2177;SDS011;1095;50.992;6.798;2023-02-28T01:55:22;6.28;;;4.45;;
2177;SDS011;1095;50.992;6.798;2023-02-28T01:57:54;7.40;;;4.60;;
2177;SDS011;1095;50.992;6.798;2023-02-28T02:00:23;7.07;;;4.88;;
2177;SDS011;1095;50.992;6.798;2023-02-28T02:02:55;9.13;;;4.93;;
2177;SDS011;1095;50.992;6.798;2023-02-28T02:05:24;5.55;;;4.60;;
2177;SDS011;1095;50.992;6.798;2023-02-28T02:07:52;11.10;;;4.65;;
2177;SDS011;1095;50.992;6.798;2023-02-28T02:10:21;7.55;;;4.70;;
2177;SDS011;1095;50.992;6.798;2023-02-28T02:12:58;10.95;;;5.18;;
2177;SDS011;1095;50.992;6.798;2023-02-28T02:15:34;9.20;;;5.32;;
2177;SDS011;1095;50.992;6.798;2023-02-28T02:18:06;8.17;;;5.10;;
2177;SDS011;1095;50.992;6.798;2023-02-28T02:23:51;6.75;;;4.70;;
2177;SDS011;1095;50.992;6.798;2023-02-28T02:32:41;10.05;;;4.93;;
2177;SDS011;1095;50.992;6.798;2023-02-28T02:35:32;7.15;;;4.50;;
2177;SDS011;1095;50.992;6.798;2023-02-28T02:38:06;7.57;;;4.68;;
2177;SDS011;1095;50.992;6.798;2023-02-28T02:40:40;8.23;;;5.07;;
2177;SDS011;1095;50.992;6.798;2023-02-28T02:43:13;6.85;;;4.50;;
2177;SDS011;1095;50.992;6.798;2023-02-28T02:48:16;11.48;;;5.13;;
2177;SDS011;1095;50.992;6.798;2023-02-28T02:50:49;8.25;;;5.20;;
2177;SDS011;1095;50.992;6.798;2023-02-28T02:53:24;7.53;;;5.32;;
2177;SDS011;1095;50.992;6.798;2023-02-28T02:55:55;8.13;;;5.22;;
2177;SDS011;1095;50.992;6.798;2023-02-28T02:58:24;8.60;;;5.07;;
2177;SDS011;1095;50.992;6.798;2023-02-28T03:00:55;8.07;;;4.75;;
2177;SDS011;1095;50.992;6.798;2023-02-28T03:03:25;7.35;;;4.93;;
2177;SDS011;1095;50.992;6.798;2023-02-28T03:05:56;5.97;;;4.32;;
2177;SDS011;1095;50.992;6.798;2023-02-28T03:08:27;6.90;;;5.17;;
2177;SDS011;1095;50.992;6.798;2023-02-28T03:10:55;6.90;;;4.72;;
2177;SDS011;1095;50.992;6.798;2023-02-28T03:13:29;9.27;;;4.63;;
2177;SDS011;1095;50.992;6.798;2023-02-28T03:19:37;7.82;;;4.90;;
2177;SDS011;1095;50.992;6.798;2023-02-28T03:47:54;10.63;;;5.43;;
2177;SDS011;1095;50.992;6.798;2023-02-28T03:50:43;10.00;;;5.47;;
2177;SDS011;1095;50.992;6.798;2023-02-28T03:53:48;7.07;;;5.22;;
2177;SDS011;1095;50.992;6.798;2023-02-28T04:04:01;8.63;;;5.75;;
2177;SDS011;1095;50.992;6.798;2023-02-28T04:07:02;11.23;;;6.15;;
2177;SDS011;1095;50.992;6.798;2023-02-28T04:09:45;9.85;;;6.05;;
2177;SDS011;1095;50.992;6.798;2023-02-28T04:12:40;13.68;;;5.95;;
2177;SDS011;1095;50.992;6.798;2023-02-28T04:23:07;10.77;;;6.25;;
2177;SDS011;1095;50.992;6.798;2023-02-28T04:25:43;9.27;;;6.80;;
2177;SDS011;1095;50.992;6.798;2023-02-28T04:28:22;9.85;;;6.90;;
2177;SDS011;1095;50.992;6.798;2023-02-28T04:30:56;9.70;;;6.70;;
2177;SDS011;1095;50.992;6.798;2023-02-28T04:33:27;10.10;;;6.90;;
2177;SDS011;1095;50.992;6.798;2023-02-28T04:36:10;12.45;;;8.07;;
2177;SDS011;1095;50.992;6.798;2023-02-28T04:38:55;10.95;;;7.05;;
2177;SDS011;1095;50.992;6.798;2023-02-28T04:41:25;11.68;;;7.45;;
2177;SDS011;1095;50.992;6.798;2023-02-28T04:46:24;14.70;;;7.28;;
2177;SDS011;1095;50.992;6.798;2023-02-28T04:48:51;11.07;;;7.10;;
2177;SDS011;1095;50.992;6.798;2023-02-28T04:51:18;10.15;;;6.72;;
2177;SDS011;1095;50.992;6.798;2023-02-28T04:53:45;12.75;;;7.53;;
2177;SDS011;1095;50.992;6.798;2023-02-28T04:56:15;10.65;;;7.20;;
2177;SDS011;1095;50.992;6.798;2023-02-28T04:58:42;12.70;;;6.95;;
2177;SDS011;1095;50.992;6.798;2023-02-28T05:01:16;13.77;;;7.47;;
2177;SDS011;1095;50.992;6.798;2023-02-28T05:03:48;10.07;;;6.65;;
2177;SDS011;1095;50.992;6.798;2023-02-28T05:06:15;9.50;;;6.93;;
2177;SDS011;1095;50.992;6.798;2023-02-28T05:08:42;12.85;;;6.90;;
2177;SDS011;1095;50.992;6.798;2023-02-28T05:11:12;11.70;;;6.78;;
2177;SDS011;1095;50.992;6.798;2023-02-28T05:13:42;11.40;;;6.47;;
2177;SDS011;1095;50.992;6.798;2023-02-28T05:16:09;10.45;;;6.45;;
2177;SDS011;1095;50.992;6.798;2023-02-28T05:18:36;10.65;;;6.43;;
2177;SDS011;1095;50.992;6.798;2023-02-28T05:21:03;8.48;;;6.30;;
2177;SDS011;1095;50.992;6.798;2023-02-28T05:23:31;10.88;;;6.47;;
2177;SDS011;1095;50.992;6.798;2023-02-28T05:26:00;11.25;;;6.60;;
2177;SDS011;1095;50.992;6.798;2023-02-28T05:28:33;11.73;;;6.68;;
2177;SDS011;1095;50.992;6.798;2023-02-28T05:31:00;10.18;;;6.45;;
2177;SDS011;1095;50.992;6.798;2023-02-28T05:33:27;10.63;;;6.80;;
2177;SDS011;1095;50.992;6.798;2023-02-28T05:35:59;13.30;;;6.20;;
2177;SDS011;1095;50.992;6.798;2023-02-28T05:38:26;12.40;;;6.55;;
2177;SDS011;1095;50.992;6.798;2023-02-28T05:41:20;13.05;;;6.40;;
2177;SDS011;1095;50.992;6.798;2023-02-28T05:50:58;11.25;;;6.38;;
2177;SDS011;1095;50.992;6.798;2023-02-28T05:53:28;10.18;;;6.55;;
2177;SDS011;1095;50.992;6.798;2023-02-28T05:55:55;9.43;;;6.70;;
2177;SDS011;1095;50.992;6.798;2023-02-28T05:58:22;8.18;;;6.05;;
2177;SDS011;1095;50.992;6.798;2023-02-28T06:00:50;10.55;;;6.60;;
2177;SDS011;1095;50.992;6.798;2023-02-28T06:03:18;11.05;;;6.25;;
2177;SDS011;1095;50.992;6.798;2023-02-28T06:05:45;11.27;;;6.28;;
2177;SDS011;1095;50.992;6.798;2023-02-28T06:08:11;13.10;;;6.55;;
2177;SDS011;1095;50.992;6.798;2023-02-28T06:10:38;8.35;;;6.10;;
2177;SDS011;1095;50.992;6.798;2023-02-28T06:13:05;10.55;;;6.85;;
2177;SDS011;1095;50.992;6.798;2023-02-28T06:15:32;11.02;;;6.38;;
2177;SDS011;1095;50.992;6.798;2023-02-28T06:17:58;9.68;;;6.15;;
2177;SDS011;1095;50.992;6.798;2023-02-28T06:20:28;8.25;;;6.40;;
2177;SDS011;1095;50.992;6.798;2023-02-28T06:22:58;10.07;;;6.25;;
2177;SDS011;1095;50.992;6.798;2023-02-28T06:25:26;10.32;;;6.68;;
2177;SDS011;1095;50.992;6.798;2023-02-28T06:27:53;9.18;;;6.18;;
2177;SDS011;1095;50.992;6.798;2023-02-28T06:30:22;8.88;;;6.40;;
2177;SDS011;1095;50.992;6.798;2023-02-28T06:32:56;9.75;;;6.05;;
2177;SDS011;1095;50.992;6.798;2023-02-28T06:35:22;9.40;;;6.03;;
2177;SDS011;1095;50.992;6.798;2023-02-28T06:37:50;10.55;;;6.68;;
2177;SDS011;1095;50.992;6.798;2023-02-28T06:40:17;7.68;;;5.85;;
2177;SDS011;1095;50.992;6.798;2023-02-28T06:42:44;8.25;;;5.90;;
2177;SDS011;1095;50.992;6.798;2023-02-28T06:45:10;7.72;;;5.60;;
2177;SDS011;1095;50.992;6.798;2023-02-28T06:47:38;9.02;;;5.78;;
2177;SDS011;1095;50.992;6.798;2023-02-28T06:50:06;11.10;;;5.90;;
2177;SDS011;1095;50.992;6.798;2023-02-28T06:52:34;8.82;;;6.20;;
2177;SDS011;1095;50.992;6.798;2023-02-28T06:55:04;8.95;;;5.72;;
2177;SDS011;1095;50.992;6.798;2023-02-28T06:57:32;8.95;;;5.50;;
2177;SDS011;1095;50.992;6.798;2023-02-28T07:00:00;8.13;;;5.38;;
2177;SDS011;1095;50.992;6.798;2023-02-28T07:02:29;6.80;;;5.22;;
2177;SDS011;1095;50.992;6.798;2023-02-28T07:04:56;8.88;;;5.15;;
2177;SDS011;1095;50.992;6.798;2023-02-28T07:07:23;7.80;;;4.82;;
2177;SDS011;1095;50.992;6.798;2023-02-28T07:09:50;7.22;;;5.43;;
2177;SDS011;1095;50.992;6.798;2023-02-28T07:12:18;7.75;;;5.28;;
2177;SDS011;1095;50.992;6.798;2023-02-28T07:14:44;7.38;;;5.00;;
2177;SDS011;1095;50.992;6.798;2023-02-28T07:17:11;8.45;;;5.45;;
2177;SDS011;1095;50.992;6.798;2023-02-28T07:19:38;6.22;;;4.93;;
2177;SDS011;1095;50.992;6.798;2023-02-28T07:22:05;7.82;;;5.40;;
2177;SDS011;1095;50.992;6.798;2023-02-28T07:24:32;7.50;;;5.32;;
2177;SDS011;1095;50.992;6.798;2023-02-28T07:26:59;7.00;;;5.25;;
2177;SDS011;1095;50.992;6.798;2023-02-28T07:29:27;7.32;;;5.28;;
2177;SDS011;1095;50.992;6.798;2023-02-28T07:31:53;6.72;;;5.13;;
2177;SDS011;1095;50.992;6.798;2023-02-28T07:34:23;9.05;;;5.03;;
2177;SDS011;1095;50.992;6.798;2023-02-28T07:36:52;7.38;;;5.22;;
2177;SDS011;1095;50.992;6.798;2023-02-28T07:39:19;7.47;;;5.03;;
2177;SDS011;1095;50.992;6.798;2023-02-28T07:41:46;6.43;;;5.00;;
2177;SDS011;1095;50.992;6.798;2023-02-28T07:44:13;7.03;;;4.85;;
2177;SDS011;1095;50.992;6.798;2023-02-28T07:46:41;8.13;;;5.18;;
2177;SDS011;1095;50.992;6.798;2023-02-28T07:49:07;6.18;;;5.00;;
2177;SDS011;1095;50.992;6.798;2023-02-28T07:51:34;6.38;;;4.72;;
2177;SDS011;1095;50.992;6.798;2023-02-28T07:54:01;7.30;;;4.80;;
2177;SDS011;1095;50.992;6.798;2023-02-28T07:56:27;7.50;;;5.50;;
2177;SDS011;1095;50.992;6.798;2023-02-28T07:58:54;8.35;;;4.70;;
2177;SDS011;1095;50.992;6.798;2023-02-28T08:01:21;7.13;;;5.18;;
2177;SDS011;1095;50.992;6.798;2023-02-28T08:03:49;8.00;;;4.95;;
2177;SDS011;1095;50.992;6.798;2023-02-28T08:06:17;6.68;;;4.75;;
2177;SDS011;1095;50.992;6.798;2023-02-28T08:08:46;9.75;;;5.10;;
2177;SDS011;1095;50.992;6.798;2023-02-28T08:11:14;5.70;;;4.57;;
2177;SDS011;1095;50.992;6.798;2023-02-28T08:13:41;5.30;;;4.45;;
2177;SDS011;1095;50.992;6.798;2023-02-28T08:16:09;6.43;;;4.47;;
2177;SDS011;1095;50.992;6.798;2023-02-28T08:18:36;5.15;;;4.05;;
2177;SDS011;1095;50.992;6.798;2023-02-28T08:21:07;5.80;;;4.45;;
2177;SDS011;1095;50.992;6.798;2023-02-28T08:23:33;6.47;;;4.80;;
2177;SDS011;1095;50.992;6.798;2023-02-28T08:26:00;6.65;;;4.30;;
2177;SDS011;1095;50.992;6.798;2023-02-28T08:28:27;6.85;;;4.25;;
2177;SDS011;1095;50.992;6.798;2023-02-28T08:30:53;6.60;;;4.38;;
2177;SDS011;1095;50.992;6.798;2023-02-28T08:33:20;6.28;;;4.47;;
2177;SDS011;1095;50.992;6.798;2023-02-28T08:35:47;6.38;;;4.50;;
2177;SDS011;1095;50.992;6.798;2023-02-28T08:38:15;5.60;;;4.40;;
2177;SDS011;1095;50.992;6.798;2023-02-28T08:40:42;10.30;;;4.75;;
2177;SDS011;1095;50.992;6.798;2023-02-28T08:43:09;4.55;;;3.85;;
2177;SDS011;1095;50.992;6.798;2023-02-28T08:45:35;6.13;;;3.90;;
2177;SDS011;1095;50.992;6.798;2023-02-28T08:48:02;5.68;;;4.30;;
2177;SDS011;1095;50.992;6.798;2023-02-28T08:50:29;5.32;;;3.85;;
2177;SDS011;1095;50.992;6.798;2023-02-28T08:52:56;5.72;;;4.22;;
2177;SDS011;1095;50.992;6.798;2023-02-28T08:55:24;5.15;;;3.75;;
2177;SDS011;1095;50.992;6.798;2023-02-28T08:57:51;4.88;;;3.50;;
2177;SDS011;1095;50.992;6.798;2023-02-28T09:00:20;8.00;;;3.40;;
2177;SDS011;1095;50.992;6.798;2023-02-28T09:02:47;4.72;;;3.47;;
2177;SDS011;1095;50.992;6.798;2023-02-28T09:05:14;5.50;;;3.47;;
2177;SDS011;1095;50.992;6.798;2023-02-28T09:07:41;7.18;;;3.40;;
2177;SDS011;1095;50.992;6.798;2023-02-28T09:10:08;4.65;;;3.15;;
2177;SDS011;1095;50.992;6.798;2023-02-28T09:12:37;4.75;;;3.53;;
2177;SDS011;1095;50.992;6.798;2023-02-28T09:15:04;14.43;;;3.10;;
2177;SDS011;1095;50.992;6.798;2023-02-28T09:17:31;4.57;;;3.33;;
2177;SDS011;1095;50.992;6.798;2023-02-28T09:19:58;3.95;;;3.25;;
2177;SDS011;1095;50.992;6.798;2023-02-28T09:22:25;4.35;;;3.20;;
2177;SDS011;1095;50.992;6.798;2023-02-28T09:24:51;4.60;;;3.30;;
2177;SDS011;1095;50.992;6.798;2023-02-28T09:27:18;5.82;;;3.60;;
2177;SDS011;1095;50.992;6.798;2023-02-28T09:29:46;5.30;;;3.50;;
2177;SDS011;1095;50.992;6.798;2023-02-28T09:32:12;4.90;;;3.53;;
2177;SDS011;1095;50.992;6.798;2023-02-28T09:34:39;5.00;;;3.40;;
2177;SDS011;1095;50.992;6.798;2023-02-28T09:37:06;4.55;;;3.55;;
2177;SDS011;1095;50.992;6.798;2023-02-28T09:39:35;4.57;;;3.42;;
2177;SDS011;1095;50.992;6.798;2023-02-28T09:42:02;4.25;;;3.40;;
2177;SDS011;1095;50.992;6.798;2023-02-28T09:44:30;5.28;;;3.60;;
2177;SDS011;1095;50.992;6.798;2023-02-28T09:47:10;5.85;;;3.67;;
2177;SDS011;1095;50.992;6.798;2023-02-28T09:49:45;5.90;;;4.25;;
2177;SDS011;1095;50.992;6.798;2023-02-28T09:52:14;5.35;;;3.97;;
2177;SDS011;1095;50.992;6.798;2023-02-28T09:54:44;8.85;;;3.90;;
2177;SDS011;1095;50.992;6.798;2023-02-28T09:57:16;5.25;;;3.83;;
2177;SDS011;1095;50.992;6.798;2023-02-28T09:59:51;7.65;;;4.25;;
2177;SDS011;1095;50.992;6.798;2023-02-28T10:02:38;5.50;;;4.05;;
2177;SDS011;1095;50.992;6.798;2023-02-28T10:05:15;6.50;;;3.95;;
2177;SDS011;1095;50.992;6.798;2023-02-28T10:07:50;6.20;;;3.92;;
2177;SDS011;1095;50.992;6.798;2023-02-28T10:10:28;4.90;;;3.70;;
2177;SDS011;1095;50.992;6.798;2023-02-28T10:13:02;5.75;;;3.58;;
2177;SDS011;1095;50.992;6.798;2023-02-28T10:15:33;4.60;;;3.53;;
2177;SDS011;1095;50.992;6.798;2023-02-28T10:18:03;9.98;;;4.65;;
2177;SDS011;1095;50.992;6.798;2023-02-28T10:20:38;5.63;;;3.70;;
2177;SDS011;1095;50.992;6.798;2023-02-28T10:23:09;4.82;;;3.67;;
2177;SDS011;1095;50.992;6.798;2023-02-28T10:25:39;5.25;;;3.53;;
2177;SDS011;1095;50.992;6.798;2023-02-28T10:28:10;4.35;;;3.50;;
2177;SDS011;1095;50.992;6.798;2023-02-28T10:30:40;6.30;;;3.88;;
2177;SDS011;1095;50.992;6.798;2023-02-28T10:33:13;5.10;;;3.80;;
2177;SDS011;1095;50.992;6.798;2023-02-28T10:35:45;6.72;;;3.65;;
2177;SDS011;1095;50.992;6.798;2023-02-28T10:38:14;6.32;;;3.80;;
2177;SDS011;1095;50.992;6.798;2023-02-28T10:40:42;6.03;;;3.80;;
2177;SDS011;1095;50.992;6.798;2023-02-28T10:43:17;5.65;;;3.75;;
2177;SDS011;1095;50.992;6.798;2023-02-28T10:45:57;5.72;;;3.75;;
2177;SDS011;1095;50.992;6.798;2023-02-28T10:48:32;6.75;;;4.00;;
2177;SDS011;1095;50.992;6.798;2023-02-28T10:51:00;4.00;;;3.45;;
2177;SDS011;1095;50.992;6.798;2023-02-28T10:53:30;4.18;;;3.60;;
2177;SDS011;1095;50.992;6.798;2023-02-28T10:56:01;7.07;;;4.10;;
2177;SDS011;1095;50.992;6.798;2023-02-28T10:58:30;4.68;;;3.72;;
2177;SDS011;1095;50.992;6.798;2023-02-28T11:01:01;5.95;;;3.97;;
2177;SDS011;1095;50.992;6.798;2023-02-28T11:03:29;5.40;;;4.10;;
2177;SDS011;1095;50.992;6.798;2023-02-28T11:06:03;5.95;;;4.00;;
2177;SDS011;1095;50.992;6.798;2023-02-28T11:08:32;4.93;;;3.60;;
2177;SDS011;1095;50.992;6.798;2023-02-28T11:11:01;4.75;;;3.95;;
2177;SDS011;1095;50.992;6.798;2023-02-28T11:13:31;4.70;;;3.88;;
2177;SDS011;1095;50.992;6.798;2023-02-28T11:16:00;5.07;;;3.83;;
2177;SDS011;1095;50.992;6.798;2023-02-28T11:18:33;6.97;;;4.20;;
2177;SDS011;1095;50.992;6.798;2023-02-28T11:21:07;5.53;;;3.88;;
2177;SDS011;1095;50.992;6.798;2023-02-28T11:23:35;6.32;;;4.13;;
2177;SDS011;1095;50.992;6.798;2023-02-28T11:26:06;6.85;;;4.07;;
2177;SDS011;1095;50.992;6.798;2023-02-28T11:28:36;5.03;;;4.20;;
2177;SDS011;1095;50.992;6.798;2023-02-28T11:31:08;5.95;;;4.15;;
2177;SDS011;1095;50.992;6.798;2023-02-28T11:33:46;5.45;;;4.00;;
2177;SDS011;1095;50.992;6.798;2023-02-28T11:36:16;5.82;;;4.28;;
2177;SDS011;1095;50.992;6.798;2023-02-28T11:38:46;5.85;;;4.05;;
2177;SDS011;1095;50.992;6.798;2023-02-28T11:41:20;6.20;;;4.40;;
2177;SDS011;1095;50.992;6.798;2023-02-28T11:44:00;6.40;;;4.32;;
2177;SDS011;1095;50.992;6.798;2023-02-28T11:46:35;5.57;;;4.25;;
2177;SDS011;1095;50.992;6.798;2023-02-28T11:49:13;6.07;;;4.55;;
2177;SDS011;1095;50.992;6.798;2023-02-28T11:51:48;6.75;;;4.78;;
2177;SDS011;1095;50.992;6.798;2023-02-28T11:54:33;5.38;;;4.22;;
2177;SDS011;1095;50.992;6.798;2023-02-28T11:57:17;7.38;;;4.53;;
2177;SDS011;1095;50.992;6.798;2023-02-28T11:59:57;7.00;;;4.57;;
2177;SDS011;1095;50.992;6.798;2023-02-28T12:02:29;5.63;;;4.60;;
2177;SDS011;1095;50.992;6.798;2023-02-28T12:05:09;7.53;;;4.40;;
2177;SDS011;1095;50.992;6.798;2023-02-28T12:07:44;5.72;;;4.30;;
2177;SDS011;1095;50.992;6.798;2023-02-28T12:10:20;6.13;;;4.70;;
2177;SDS011;1095;50.992;6.798;2023-02-28T12:12:53;6.95;;;4.53;;
2177;SDS011;1095;50.992;6.798;2023-02-28T12:18:34;5.75;;;4.30;;
2177;SDS011;1095;50.992;6.798;2023-02-28T12:21:18;6.40;;;4.68;;
2177;SDS011;1095;50.992;6.798;2023-02-28T12:24:00;6.15;;;4.70;;
2177;SDS011;1095;50.992;6.798;2023-02-28T12:26:38;6.45;;;4.57;;
2177;SDS011;1095;50.992;6.798;2023-02-28T12:29:10;7.45;;;4.78;;
2177;SDS011;1095;50.992;6.798;2023-02-28T12:31:45;6.75;;;4.85;;
2177;SDS011;1095;50.992;6.798;2023-02-28T12:34:16;6.22;;;4.85;;
2177;SDS011;1095;50.992;6.798;2023-02-28T12:36:49;6.97;;;5.05;;
2177;SDS011;1095;50.992;6.798;2023-02-28T12:39:28;6.07;;;4.97;;
2177;SDS011;1095;50.992;6.798;2023-02-28T12:42:07;8.57;;;4.78;;
2177;SDS011;1095;50.992;6.798;2023-02-28T12:44:48;7.13;;;4.80;;
2177;SDS011;1095;50.992;6.798;2023-02-28T12:47:25;6.47;;;4.65;;
2177;SDS011;1095;50.992;6.798;2023-02-28T12:49:56;5.97;;;4.68;;
2177;SDS011;1095;50.992;6.798;2023-02-28T12:55:38;8.90;;;5.05;;
2177;SDS011;1095;50.992;6.798;2023-02-28T12:58:12;9.60;;;4.80;;
2177;SDS011;1095;50.992;6.798;2023-02-28T13:01:02;8.98;;;5.20;;
2177;SDS011;1095;50.992;6.798;2023-02-28T13:03:43;7.43;;;4.88;;
2177;SDS011;1095;50.992;6.798;2023-02-28T13:09:25;6.40;;;4.85;;
2177;SDS011;1095;50.992;6.798;2023-02-28T13:11:54;6.43;;;4.70;;
2177;SDS011;1095;50.992;6.798;2023-02-28T13:14:25;7.25;;;4.88;;
2177;SDS011;1095;50.992;6.798;2023-02-28T13:16:59;6.75;;;4.95;;
2177;SDS011;1095;50.992;6.798;2023-02-28T13:19:29;8.10;;;4.78;;
2177;SDS011;1095;50.992;6.798;2023-02-28T13:21:58;6.88;;;5.18;;
2177;SDS011;1095;50.992;6.798;2023-02-28T13:24:39;8.73;;;5.07;;
2177;SDS011;1095;50.992;6.798;2023-02-28T13:27:19;6.53;;;5.10;;
2177;SDS011;1095;50.992;6.798;2023-02-28T13:29:50;7.13;;;5.28;;
2177;SDS011;1095;50.992;6.798;2023-02-28T13:44:07;7.32;;;5.35;;
2177;SDS011;1095;50.992;6.798;2023-02-28T13:46:35;7.68;;;5.60;;
2177;SDS011;1095;50.992;6.798;2023-02-28T13:49:24;6.65;;;5.38;;
2177;SDS011;1095;50.992;6.798;2023-02-28T13:51:54;6.90;;;5.30;;
2177;SDS011;1095;50.992;6.798;2023-02-28T13:54:33;7.03;;;5.32;;
2177;SDS011;1095;50.992;6.798;2023-02-28T13:57:17;7.72;;;5.35;;
2177;SDS011;1095;50.992;6.798;2023-02-28T13:59:57;7.03;;;5.30;;
2177;SDS011;1095;50.992;6.798;2023-02-28T14:02:54;6.97;;;4.80;;
2177;SDS011;1095;50.992;6.798;2023-02-28T14:05:33;7.05;;;4.88;;
2177;SDS011;1095;50.992;6.798;2023-02-28T14:08:04;7.15;;;5.20;;
2177;SDS011;1095;50.992;6.798;2023-02-28T14:10:34;6.40;;;4.88;;
2177;SDS011;1095;50.992;6.798;2023-02-28T14:16:10;5.90;;;4.50;;
2177;SDS011;1095;50.992;6.798;2023-02-28T14:18:40;6.97;;;4.75;;
2177;SDS011;1095;50.992;6.798;2023-02-28T14:21:09;6.45;;;4.43;;
2177;SDS011;1095;50.992;6.798;2023-02-28T14:26:56;6.88;;;5.07;;
2177;SDS011;1095;50.992;6.798;2023-02-28T14:29:37;6.05;;;4.63;;
2177;SDS011;1095;50.992;6.798;2023-02-28T14:32:22;5.35;;;4.70;;
2177;SDS011;1095;50.992;6.798;2023-02-28T14:34:58;7.45;;;5.40;;
2177;SDS011;1095;50.992;6.798;2023-02-28T14:37:38;5.93;;;4.90;;
2177;SDS011;1095;50.992;6.798;2023-02-28T14:40:11;7.97;;;5.50;;
2177;SDS011;1095;50.992;6.798;2023-02-28T14:42:46;6.53;;;5.00;;
2177;SDS011;1095;50.992;6.798;2023-02-28T14:45:17;6.93;;;5.50;;
2177;SDS011;1095;50.992;6.798;2023-02-28T14:47:47;5.93;;;4.88;;
2177;SDS011;1095;50.992;6.798;2023-02-28T14:50:18;8.27;;;5.32;;
2177;SDS011;1095;50.992;6.798;2023-02-28T14:52:50;7.50;;;5.20;;
2177;SDS011;1095;50.992;6.798;2023-02-28T14:55:19;7.07;;;5.32;;
2177;SDS011;1095;50.992;6.798;2023-02-28T14:57:52;7.13;;;5.35;;
2177;SDS011;1095;50.992;6.798;2023-02-28T15:00:21;9.30;;;5.63;;
2177;SDS011;1095;50.992;6.798;2023-02-28T15:02:52;7.95;;;5.50;;
2177;SDS011;1095;50.992;6.798;2023-02-28T15:05:27;8.45;;;5.88;;
2177;SDS011;1095;50.992;6.798;2023-02-28T15:08:05;7.25;;;5.40;;
2177;SDS011;1095;50.992;6.798;2023-02-28T15:10:36;9.15;;;5.65;;
2177;SDS011;1095;50.992;6.798;2023-02-28T15:13:05;8.80;;;5.65;;
2177;SDS011;1095;50.992;6.798;2023-02-28T15:15:41;8.45;;;5.50;;
2177;SDS011;1095;50.992;6.798;2023-02-28T15:18:14;7.15;;;5.40;;
2177;SDS011;1095;50.992;6.798;2023-02-28T15:20:47;10.55;;;6.15;;
2177;SDS011;1095;50.992;6.798;2023-02-28T15:23:15;8.48;;;5.97;;
2177;SDS011;1095;50.992;6.798;2023-02-28T15:25:44;6.93;;;5.60;;
2177;SDS011;1095;50.992;6.798;2023-02-28T15:28:13;7.10;;;5.10;;
2177;SDS011;1095;50.992;6.798;2023-02-28T15:30:55;6.68;;;5.28;;
2177;SDS011;1095;50.992;6.798;2023-02-28T15:33:28;8.43;;;5.75;;
2177;SDS011;1095;50.992;6.798;2023-02-28T15:36:03;8.32;;;5.53;;
2177;SDS011;1095;50.992;6.798;2023-02-28T15:38:37;9.02;;;5.55;;
2177;SDS011;1095;50.992;6.798;2023-02-28T15:41:04;7.07;;;5.13;;
2177;SDS011;1095;50.992;6.798;2023-02-28T15:43:34;7.05;;;4.93;;
2177;SDS011;1095;50.992;6.798;2023-02-28T15:46:03;11.13;;;5.25;;
2177;SDS011;1095;50.992;6.798;2023-02-28T15:48:34;8.23;;;5.25;;
2177;SDS011;1095;50.992;6.798;2023-02-28T15:51:06;7.75;;;5.45;;
2177;SDS011;1095;50.992;6.798;2023-02-28T15:53:50;7.07;;;4.85;;
2177;SDS011;1095;50.992;6.798;2023-02-28T15:56:22;7.80;;;5.60;;
2177;SDS011;1095;50.992;6.798;2023-02-28T15:58:52;8.55;;;5.78;;
2177;SDS011;1095;50.992;6.798;2023-02-28T16:01:23;7.10;;;5.15;;
2177;SDS011;1095;50.992;6.798;2023-02-28T16:03:53;8.48;;;5.10;;
2177;SDS011;1095;50.992;6.798;2023-02-28T16:06:37;8.13;;;4.70;;
2177;SDS011;1095;50.992;6.798;2023-02-28T16:09:08;6.07;;;5.10;;
2177;SDS011;1095;50.992;6.798;2023-02-28T16:11:38;7.57;;;5.03;;
2177;SDS011;1095;50.992;6.798;2023-02-28T16:14:12;9.13;;;7.65;;
2177;SDS011;1095;50.992;6.798;2023-02-28T16:19:12;8.05;;;5.47;;
2177;SDS011;1095;50.992;6.798;2023-02-28T16:21:39;6.97;;;5.20;;
2177;SDS011;1095;50.992;6.798;2023-02-28T16:24:06;8.48;;;5.22;;
2177;SDS011;1095;50.992;6.798;2023-02-28T16:26:33;7.78;;;5.40;;
2177;SDS011;1095;50.992;6.798;2023-02-28T16:29:02;7.07;;;5.32;;
2177;SDS011;1095;50.992;6.798;2023-02-28T16:31:36;7.32;;;5.60;;
2177;SDS011;1095;50.992;6.798;2023-02-28T16:34:04;7.55;;;5.47;;
2177;SDS011;1095;50.992;6.798;2023-02-28T16:36:32;8.50;;;5.90;;
2177;SDS011;1095;50.992;6.798;2023-02-28T16:38:59;7.13;;;5.35;;
2177;SDS011;1095;50.992;6.798;2023-02-28T16:41:27;6.82;;;4.95;;
2177;SDS011;1095;50.992;6.798;2023-02-28T16:43:54;8.68;;;5.57;;
2177;SDS011;1095;50.992;6.798;2023-02-28T16:46:25;8.55;;;5.53;;
2177;SDS011;1095;50.992;6.798;2023-02-28T16:48:56;6.70;;;5.28;;
2177;SDS011;1095;50.992;6.798;2023-02-28T16:51:22;7.10;;;5.30;;
2177;SDS011;1095;50.992;6.798;2023-02-28T16:53:54;11.40;;;5.18;;
2177;SDS011;1095;50.992;6.798;2023-02-28T16:56:21;9.32;;;5.95;;
2177;SDS011;1095;50.992;6.798;2023-02-28T16:58:50;8.40;;;5.47;;
2177;SDS011;1095;50.992;6.798;2023-02-28T17:01:36;6.93;;;5.22;;
2177;SDS011;1095;50.992;6.798;2023-02-28T17:04:03;7.95;;;5.47;;
2177;SDS011;1095;50.992;6.798;2023-02-28T17:06:31;7.57;;;5.28;;
2177;SDS011;1095;50.992;6.798;2023-02-28T17:08:59;9.02;;;4.93;;
2177;SDS011;1095;50.992;6.798;2023-02-28T17:11:26;6.80;;;5.28;;
2177;SDS011;1095;50.992;6.798;2023-02-28T17:20:59;11.07;;;7.60;;